createdAt,value
2018-08-25T00:00:21.282Z,56.46
2018-08-25T00:02:51.526Z,55.03
2018-08-25T00:05:21.607Z,55.11
2018-08-25T00:07:51.734Z,55.61
2018-08-25T00:10:21.790Z,55.74
2018-08-25T00:12:51.891Z,55.94
2018-08-25T00:15:21.983Z,56.67
2018-08-25T00:17:52.086Z,56.28
2018-08-25T00:20:22.143Z,56.39
2018-08-25T00:22:52.288Z,57.32
2018-08-25T00:25:22.371Z,56.60
2018-08-25T00:27:52.561Z,56.17
2018-08-25T00:30:27.617Z,56.34
2018-08-25T00:32:57.727Z,56.21
2018-08-25T00:35:27.823Z,56.60
2018-08-25T00:37:57.946Z,56.96
2018-08-25T00:40:28.038Z,57.99
2018-08-25T00:42:58.275Z,58.42
2018-08-25T00:45:28.435Z,57.74
2018-08-25T00:47:58.698Z,58.84
2018-08-25T00:50:29.011Z,59.09
2018-08-25T00:52:59.343Z,59.45
2018-08-25T00:55:29.532Z,60.39
2018-08-25T00:57:59.657Z,60.17
2018-08-25T01:00:29.809Z,60.24
2018-08-25T01:03:00.003Z,60.25
2018-08-25T01:05:30.114Z,60.39
2018-08-25T01:08:00.338Z,59.54
2018-08-25T01:10:30.535Z,59.28
2018-08-25T01:13:00.718Z,59.28
2018-08-25T01:15:30.866Z,59.65
2018-08-25T01:18:01.009Z,59.47
2018-08-25T01:20:31.136Z,59.42
2018-08-25T01:23:01.336Z,59.71
2018-08-25T01:25:31.477Z,59.98
2018-08-25T01:28:01.630Z,59.66
2018-08-25T01:30:31.721Z,59.14
2018-08-25T01:33:01.905Z,59.36
2018-08-25T01:35:31.955Z,60.03
2018-08-25T01:38:02.127Z,60.57
2018-08-25T01:40:32.313Z,60.40
2018-08-25T01:43:02.457Z,60.51
2018-08-25T01:45:32.586Z,62.78
2018-08-25T01:48:02.770Z,65.27
2018-08-25T01:50:32.907Z,64.29
2018-08-25T01:53:03.118Z,66.44
2018-08-25T01:55:33.228Z,64.25
2018-08-25T01:58:03.428Z,63.45
2018-08-25T02:00:33.515Z,62.26
2018-08-25T02:03:10.415Z,61.80
2018-08-25T02:05:40.523Z,61.49
2018-08-25T02:08:10.653Z,60.76
2018-08-25T02:10:40.741Z,60.80
2018-08-25T02:13:10.911Z,60.61
2018-08-25T02:15:41.056Z,59.72
2018-08-25T02:18:11.164Z,59.50
2018-08-25T02:20:41.220Z,59.83
2018-08-25T02:23:11.329Z,60.01
2018-08-25T02:25:41.359Z,59.66
2018-08-25T02:28:11.473Z,60.13
2018-08-25T02:30:41.609Z,59.69
2018-08-25T02:33:12.408Z,62.75
2018-08-25T02:35:42.626Z,63.74
2018-08-25T02:38:12.812Z,65.65
2018-08-25T02:40:42.886Z,66.53
2018-08-25T02:43:13.039Z,68.88
2018-08-25T02:45:49.999Z,72.97
2018-08-25T02:48:20.199Z,76.45
2018-08-25T02:50:50.435Z,79.37
2018-08-25T02:53:20.599Z,82.55
2018-08-25T02:55:50.695Z,82.27
2018-08-25T02:58:20.947Z,84.30
2018-08-25T03:00:51.141Z,86.41
2018-08-25T03:03:21.299Z,86.99
2018-08-25T03:05:51.436Z,88.94
2018-08-25T03:08:21.723Z,90.62
2018-08-25T03:10:52.227Z,91.58
2018-08-25T03:13:22.331Z,92.57
2018-08-25T03:15:52.507Z,94.54
2018-08-25T03:18:22.619Z,94.66
2018-08-25T03:20:52.695Z,96.28
2018-08-25T03:23:22.799Z,96.72
2018-08-25T03:25:53.183Z,97.35
2018-08-25T03:28:23.279Z,98.00
2018-08-25T03:30:53.364Z,98.15
2018-08-25T03:33:23.419Z,99.02
2018-08-25T03:35:53.915Z,99.83
2018-08-25T03:38:24.212Z,99.59
2018-08-25T03:40:54.392Z,100.00
2018-08-25T03:43:24.486Z,100.00
2018-08-25T03:45:54.810Z,100.00
2018-08-25T03:48:24.989Z,100.00
2018-08-25T03:50:55.060Z,100.00
2018-08-25T03:53:25.214Z,100.00
2018-08-25T03:55:55.368Z,100.00
2018-08-25T03:58:25.514Z,100.00
2018-08-25T04:00:55.628Z,100.00
2018-08-25T04:03:25.728Z,100.00
2018-08-25T04:05:55.922Z,100.00
2018-08-25T04:08:26.013Z,100.00
2018-08-25T04:10:56.050Z,100.00
2018-08-25T04:13:26.129Z,100.00
2018-08-25T04:15:56.231Z,100.00
2018-08-25T04:18:26.360Z,100.00
2018-08-25T04:20:56.469Z,100.00
2018-08-25T04:23:26.596Z,100.00
2018-08-25T04:25:56.690Z,100.00
2018-08-25T04:28:26.772Z,100.00
2018-08-25T04:30:56.885Z,100.00
2018-08-25T04:33:27.025Z,100.00
2018-08-25T04:35:57.205Z,100.00
2018-08-25T04:38:27.292Z,100.00
2018-08-25T04:40:57.352Z,100.00
2018-08-25T04:43:27.434Z,99.55
2018-08-25T04:45:57.585Z,99.94
2018-08-25T04:48:27.698Z,100.00
2018-08-25T04:50:57.759Z,100.00
2018-08-25T04:53:27.808Z,100.00
2018-08-25T04:55:57.845Z,100.00
2018-08-25T04:58:28.042Z,100.00
2018-08-25T05:00:58.080Z,99.94
2018-08-25T05:03:28.184Z,100.00
2018-08-25T05:05:58.239Z,100.00
2018-08-25T05:08:28.384Z,100.00
2018-08-25T05:10:58.481Z,100.00
2018-08-25T05:13:28.568Z,100.00
2018-08-25T05:15:58.640Z,100.00
2018-08-25T05:18:28.770Z,100.00
2018-08-25T05:20:58.846Z,100.00
2018-08-25T05:23:28.918Z,100.00
2018-08-25T05:25:59.012Z,100.00
2018-08-25T05:28:29.134Z,100.00
2018-08-25T05:30:59.223Z,99.07
2018-08-25T05:33:29.357Z,100.00
2018-08-25T05:35:59.426Z,100.00
2018-08-25T05:38:30.945Z,98.14
2018-08-25T05:41:01.043Z,99.03
2018-08-25T05:43:31.503Z,98.34
2018-08-25T05:46:01.678Z,97.63
2018-08-25T05:48:32.062Z,98.56
2018-08-25T05:51:02.390Z,98.98
2018-08-25T05:53:32.528Z,96.78
2018-08-25T05:56:02.621Z,96.98
2018-08-25T05:58:32.743Z,97.38
2018-08-25T06:01:02.883Z,96.23
2018-08-25T06:03:33.028Z,96.57
2018-08-25T06:06:03.159Z,96.02
2018-08-25T06:08:35.051Z,94.79
2018-08-25T06:11:05.125Z,93.29
2018-08-25T06:13:35.264Z,91.89
2018-08-25T06:16:05.470Z,90.75
2018-08-25T06:18:35.576Z,90.15
2018-08-25T06:21:06.204Z,91.56
2018-08-25T06:23:36.901Z,92.14
2018-08-25T06:26:07.184Z,92.42
2018-08-25T06:28:37.360Z,92.40
2018-08-25T06:31:08.459Z,93.17
2018-08-25T06:33:38.816Z,92.72
2018-08-25T06:36:08.979Z,93.95
2018-08-25T06:38:39.054Z,93.20
2018-08-25T06:41:09.132Z,94.06
2018-08-25T06:43:39.897Z,93.87
2018-08-25T06:46:10.874Z,93.47
2018-08-25T06:48:41.855Z,90.46
2018-08-25T06:51:11.951Z,88.84
2018-08-25T06:53:42.451Z,89.91
2018-08-25T06:56:12.484Z,89.88
2018-08-25T06:58:44.445Z,86.68
2018-08-25T07:01:14.703Z,89.90
2018-08-25T07:03:47.329Z,89.28
2018-08-25T07:06:17.346Z,90.23
2018-08-25T07:09:01.956Z,88.81
2018-08-25T07:11:36.830Z,88.42
2018-08-25T07:14:07.069Z,90.41
2018-08-25T07:16:37.120Z,92.27
2018-08-25T07:19:07.724Z,91.95
2018-08-25T07:21:37.757Z,90.63
2018-08-25T07:24:07.790Z,88.98
2018-08-25T07:26:38.338Z,88.93
2018-08-25T07:29:09.095Z,86.45
2018-08-25T07:31:39.265Z,86.66
2018-08-25T07:34:09.379Z,84.78
2018-08-25T07:36:39.461Z,84.21
2018-08-25T07:39:12.595Z,87.03
2018-08-25T07:41:42.818Z,87.13
2018-08-25T07:44:13.120Z,85.87
2018-08-25T07:46:43.261Z,84.22
2018-08-25T07:49:13.464Z,83.15
2018-08-25T07:51:43.522Z,85.33
2018-08-25T07:54:13.630Z,81.14
2018-08-25T07:56:43.733Z,80.48
2018-08-25T07:59:13.908Z,80.37
2018-08-25T08:01:44.015Z,83.43
2018-08-25T08:04:14.144Z,82.19
2018-08-25T08:06:44.228Z,80.97
2018-08-25T08:09:14.325Z,85.07
2018-08-25T08:11:44.421Z,83.27
2018-08-25T08:14:14.979Z,84.52
2018-08-25T08:16:45.117Z,81.52
2018-08-25T08:19:15.224Z,80.13
2018-08-25T08:21:45.300Z,84.29
2018-08-25T08:24:15.410Z,84.63
2018-08-25T08:26:45.579Z,82.96
2018-08-25T08:29:15.717Z,83.75
2018-08-25T08:31:45.799Z,84.38
2018-08-25T08:34:16.026Z,83.94
2018-08-25T08:36:58.382Z,83.09
2018-08-25T08:39:28.546Z,83.06
2018-08-25T08:41:58.544Z,83.27
2018-08-25T08:44:29.449Z,81.49
2018-08-25T08:46:59.477Z,77.38
2018-08-25T08:49:29.553Z,76.30
2018-08-25T08:51:59.620Z,75.46
2018-08-25T08:54:29.721Z,75.59
2018-08-25T08:56:59.799Z,73.07
2018-08-25T08:59:30.012Z,72.02
2018-08-25T09:02:00.050Z,73.88
2018-08-25T09:04:30.373Z,73.94
2018-08-25T09:07:00.929Z,71.55
2018-08-25T09:09:31.098Z,69.35
2018-08-25T09:12:01.200Z,69.64
2018-08-25T09:14:31.378Z,66.72
2018-08-25T09:17:07.151Z,69.48
2018-08-25T09:19:37.346Z,72.74
2018-08-25T09:22:07.558Z,75.50
2018-08-25T09:24:37.707Z,73.25
2018-08-25T09:27:08.413Z,75.53
2018-08-25T09:29:38.572Z,75.35
2018-08-25T09:32:08.789Z,72.90
2018-08-25T09:34:38.865Z,66.40
2018-08-25T09:37:12.875Z,63.75
2018-08-25T09:39:43.196Z,59.17
2018-08-25T09:42:13.728Z,57.22
2018-08-25T09:44:44.146Z,59.73
2018-08-25T09:47:14.482Z,62.30
2018-08-25T09:49:44.658Z,62.31
2018-08-25T09:52:14.735Z,61.28
2018-08-25T09:54:44.841Z,62.50
2018-08-25T09:57:24.216Z,61.35
2018-08-25T09:59:54.351Z,61.53
2018-08-25T10:02:24.434Z,60.40
2018-08-25T10:04:54.593Z,58.77
2018-08-25T10:07:24.803Z,59.75
2018-08-25T10:09:54.937Z,59.43
2018-08-25T10:12:25.138Z,59.69
2018-08-25T10:14:55.232Z,62.67
2018-08-25T10:17:25.369Z,60.72
2018-08-25T10:19:55.569Z,59.20
2018-08-25T10:22:25.701Z,57.99
2018-08-25T10:24:55.825Z,59.31
2018-08-25T10:27:25.948Z,59.10
2018-08-25T10:29:57.035Z,62.67
2018-08-25T10:32:27.307Z,60.52
2018-08-25T10:34:57.399Z,62.14
2018-08-25T10:37:27.470Z,58.96
2018-08-25T10:39:57.561Z,55.49
2018-08-25T10:42:27.666Z,57.68
2018-08-25T10:44:57.769Z,57.97
2018-08-25T10:47:27.866Z,55.13
2018-08-25T10:49:58.015Z,58.45
2018-08-25T10:52:28.258Z,55.97
2018-08-25T10:54:58.558Z,56.10
2018-08-25T10:57:28.672Z,57.92
2018-08-25T10:59:58.786Z,55.51
2018-08-25T11:02:29.504Z,56.13
2018-08-25T11:04:59.587Z,54.72
2018-08-25T11:07:29.835Z,57.30
2018-08-25T11:10:00.023Z,59.14
2018-08-25T11:12:30.190Z,81.78
2018-08-25T11:15:00.570Z,91.29
2018-08-25T11:17:30.765Z,94.05
2018-08-25T11:20:00.961Z,94.30
2018-08-25T11:22:33.153Z,96.79
2018-08-25T11:25:03.320Z,98.92
2018-08-25T11:27:33.455Z,98.13
2018-08-25T11:30:03.711Z,99.84
2018-08-25T11:32:33.884Z,100.00
2018-08-25T11:35:04.102Z,98.14
2018-08-25T11:37:34.312Z,95.23
2018-08-25T11:40:04.484Z,93.33
2018-08-25T11:42:34.692Z,95.26
2018-08-25T11:45:04.888Z,89.85
2018-08-25T11:47:34.950Z,91.36
2018-08-25T11:50:05.264Z,89.54
2018-08-25T11:52:35.403Z,86.01
2018-08-25T11:55:05.546Z,87.85
2018-08-25T11:57:35.632Z,85.17
2018-08-25T12:00:07.002Z,90.92
2018-08-25T12:02:37.216Z,93.87
2018-08-25T12:05:07.730Z,92.69
2018-08-25T12:07:37.845Z,89.53
2018-08-25T12:10:08.159Z,87.69
2018-08-25T12:12:38.304Z,83.26
2018-08-25T12:15:09.102Z,83.75
2018-08-25T12:17:39.267Z,83.96
2018-08-25T12:20:09.534Z,86.49
2018-08-25T12:22:39.643Z,81.41
2018-08-25T12:25:10.158Z,77.87
2018-08-25T12:27:40.296Z,69.86
2018-08-25T12:30:10.476Z,70.41
2018-08-25T12:32:40.554Z,76.79
2018-08-25T12:35:10.706Z,75.68
2018-08-25T12:37:40.758Z,77.27
2018-08-25T12:40:10.888Z,77.24
2018-08-25T12:42:41.100Z,75.93
2018-08-25T12:45:11.387Z,76.90
2018-08-25T12:47:41.457Z,72.86
2018-08-25T12:50:11.631Z,73.50
2018-08-25T12:52:41.750Z,74.48
2018-08-25T12:55:26.954Z,72.83
2018-08-25T12:57:57.340Z,75.35
2018-08-25T13:00:27.543Z,69.37
2018-08-25T13:02:58.553Z,68.80
2018-08-25T13:05:29.200Z,70.73
2018-08-25T13:08:00.390Z,69.64
2018-08-25T13:10:31.077Z,62.15
2018-08-25T13:13:01.647Z,62.30
2018-08-25T13:15:31.968Z,63.82
2018-08-25T13:18:02.083Z,55.04
2018-08-25T13:20:32.578Z,55.48
2018-08-25T13:23:06.151Z,58.07
2018-08-25T13:25:36.434Z,60.83
2018-08-25T13:28:06.739Z,61.64
2018-08-25T13:30:36.973Z,59.75
2018-08-25T13:33:07.218Z,58.09
2018-08-25T13:35:37.471Z,59.05
2018-08-25T13:38:07.930Z,57.83
2018-08-25T13:40:38.565Z,60.47
2018-08-25T13:43:09.882Z,58.36
2018-08-25T13:45:40.042Z,62.77
2018-08-25T13:48:10.337Z,65.35
2018-08-25T13:50:40.463Z,66.24
2018-08-25T13:53:10.624Z,63.08
2018-08-25T13:55:40.842Z,64.59
2018-08-25T13:58:10.998Z,65.92
2018-08-25T14:00:51.615Z,67.37
2018-08-25T14:03:26.563Z,72.39
2018-08-25T14:05:56.954Z,75.52
2018-08-25T14:08:27.511Z,80.71
2018-08-25T14:10:57.591Z,81.28
2018-08-25T14:13:27.774Z,82.21
2018-08-25T14:15:58.515Z,79.51
2018-08-25T14:18:28.746Z,76.93
2018-08-25T14:20:59.182Z,70.93
2018-08-25T14:23:29.621Z,73.45
2018-08-25T14:26:00.573Z,71.66
2018-08-25T14:28:30.697Z,69.37
2018-08-25T14:31:00.918Z,72.62
2018-08-25T14:33:31.231Z,71.07
2018-08-25T14:36:01.644Z,68.70
2018-08-25T14:38:31.739Z,69.25
2018-08-25T14:41:01.827Z,69.30
2018-08-25T14:43:37.842Z,64.21
2018-08-25T14:46:13.879Z,64.89
2018-08-25T14:48:45.951Z,64.41
2018-08-25T14:51:17.468Z,64.94
2018-08-25T14:53:49.030Z,62.40
2018-08-25T14:56:22.074Z,62.89
2018-08-25T14:58:53.645Z,62.93
2018-08-25T15:01:31.945Z,62.24
2018-08-25T15:04:03.306Z,56.68
2018-08-25T15:06:33.536Z,60.17
2018-08-25T15:09:04.351Z,59.13
2018-08-25T15:11:34.613Z,58.92
2018-08-25T15:14:04.735Z,57.86
2018-08-25T15:16:34.944Z,54.75
2018-08-25T15:19:05.415Z,56.20
2018-08-25T15:21:36.667Z,54.07
2018-08-25T15:24:07.336Z,53.47
2018-08-25T15:26:37.757Z,53.59
2018-08-25T15:29:08.167Z,49.81
2018-08-25T15:31:38.502Z,49.83
2018-08-25T15:34:10.118Z,49.70
2018-08-25T15:36:41.367Z,52.45
2018-08-25T15:39:14.715Z,53.89
2018-08-25T15:41:44.954Z,53.09
2018-08-25T15:44:15.085Z,54.19
2018-08-25T15:46:45.473Z,53.40
2018-08-25T15:49:15.924Z,54.58
2018-08-25T15:51:46.052Z,53.76
2018-08-25T15:54:16.268Z,54.21
2018-08-25T15:56:50.756Z,52.07
2018-08-25T15:59:20.855Z,54.14
2018-08-25T16:01:50.957Z,55.60
2018-08-25T16:04:21.072Z,56.67
2018-08-25T16:06:51.212Z,57.19
2018-08-25T16:09:21.356Z,56.57
2018-08-25T16:11:51.554Z,55.20
2018-08-25T16:14:21.689Z,57.54
2018-08-25T16:16:51.828Z,55.06
2018-08-25T16:19:34.832Z,55.01
2018-08-25T16:22:05.082Z,56.15
2018-08-25T16:24:35.129Z,57.98
2018-08-25T16:27:05.299Z,58.31
2018-08-25T16:29:35.434Z,58.17
2018-08-25T16:32:07.456Z,59.52
2018-08-25T16:34:38.245Z,60.95
2018-08-25T16:37:08.203Z,63.37
2018-08-25T16:39:38.257Z,62.14
2018-08-25T16:42:08.837Z,64.15
2018-08-25T16:44:39.320Z,65.47
2018-08-25T16:47:09.476Z,63.45
2018-08-25T16:49:39.565Z,65.45
2018-08-25T16:52:09.838Z,66.98
2018-08-25T16:54:40.011Z,67.04
2018-08-25T16:57:10.116Z,67.02
2018-08-25T16:59:40.176Z,65.93
2018-08-25T17:02:10.340Z,66.39
2018-08-25T17:04:40.397Z,65.38
2018-08-25T17:07:10.536Z,62.93
2018-08-25T17:09:40.613Z,63.94
2018-08-25T17:12:10.717Z,63.89
2018-08-25T17:14:40.810Z,64.85
2018-08-25T17:17:10.879Z,67.43
2018-08-25T17:20:05.099Z,70.21
2018-08-25T17:22:35.231Z,70.46
2018-08-25T17:25:05.327Z,70.55
2018-08-25T17:27:35.360Z,71.43
2018-08-25T17:30:05.647Z,70.02
2018-08-25T17:32:35.839Z,70.18
2018-08-25T17:35:06.068Z,70.65
2018-08-25T17:37:36.222Z,70.79
2018-08-25T17:40:06.948Z,70.75
2018-08-25T17:42:37.051Z,70.50
2018-08-25T17:45:07.772Z,70.38
2018-08-25T17:47:37.993Z,67.56
2018-08-25T17:50:09.105Z,69.90
2018-08-25T17:52:39.168Z,72.89
2018-08-25T17:55:09.297Z,73.24
2018-08-25T17:57:39.418Z,72.88
2018-08-25T18:00:09.553Z,73.57
2018-08-25T18:02:46.023Z,73.17
2018-08-25T18:05:16.184Z,73.02
2018-08-25T18:07:46.278Z,73.88
2018-08-25T18:10:16.394Z,73.68
2018-08-25T18:12:46.488Z,70.24
2018-08-25T18:15:16.527Z,69.85
2018-08-25T18:17:46.586Z,69.49
2018-08-25T18:20:16.691Z,69.23
2018-08-25T18:22:46.821Z,69.23
2018-08-25T18:25:16.887Z,68.26
2018-08-25T18:27:47.037Z,67.49
2018-08-25T18:30:17.233Z,68.07
2018-08-25T18:32:47.406Z,67.26
2018-08-25T18:35:17.493Z,68.75
2018-08-25T18:37:47.633Z,67.46
2018-08-25T18:40:17.713Z,67.03
2018-08-25T18:42:47.892Z,70.08
2018-08-25T18:45:38.822Z,70.47
2018-08-25T18:48:09.003Z,71.33
2018-08-25T18:50:39.159Z,67.59
2018-08-25T18:53:09.224Z,69.58
2018-08-25T18:55:39.397Z,69.23
2018-08-25T18:58:09.609Z,68.54
2018-08-25T19:00:39.685Z,69.92
2018-08-25T19:03:09.876Z,70.73
2018-08-25T19:05:39.967Z,68.37
2018-08-25T19:08:10.198Z,71.17
2018-08-25T19:10:40.346Z,72.70
2018-08-25T19:13:10.582Z,71.52
2018-08-25T19:15:40.621Z,69.89
2018-08-25T19:18:10.779Z,72.14
2018-08-25T19:20:40.850Z,74.53
2018-08-25T19:23:10.959Z,75.27
2018-08-25T19:25:41.115Z,76.63
2018-08-25T19:28:11.345Z,77.43
2018-08-25T19:30:41.439Z,77.89
2018-08-25T19:33:11.603Z,79.64
2018-08-25T19:35:41.834Z,79.81
2018-08-25T19:38:21.821Z,79.85
2018-08-25T19:41:17.355Z,80.87
2018-08-25T19:43:47.727Z,81.67
2018-08-25T19:46:17.838Z,83.44
2018-08-25T19:48:48.298Z,84.24
2018-08-25T19:51:18.400Z,85.99
2018-08-25T19:53:48.526Z,86.27
2018-08-25T19:56:18.620Z,87.18
2018-08-25T19:58:48.769Z,88.13
2018-08-25T20:01:18.861Z,88.39
2018-08-25T20:03:48.977Z,88.12
2018-08-25T20:06:19.068Z,88.76
2018-08-25T20:08:49.211Z,90.19
2018-08-25T20:11:19.330Z,90.43
2018-08-25T20:13:49.442Z,91.28
2018-08-25T20:16:19.789Z,90.93
2018-08-25T20:18:49.958Z,90.76
2018-08-25T20:21:20.288Z,91.57
2018-08-25T20:23:50.547Z,92.02
2018-08-25T20:26:20.670Z,92.10
2018-08-25T20:28:50.778Z,92.27
2018-08-25T20:31:27.316Z,92.46
2018-08-25T20:33:57.396Z,92.57
2018-08-25T20:36:27.458Z,92.77
2018-08-25T20:38:57.525Z,92.21
2018-08-25T20:41:28.706Z,92.33
2018-08-25T20:43:58.837Z,92.57
2018-08-25T20:46:28.888Z,93.39
2018-08-25T20:48:58.966Z,93.49
2018-08-25T20:51:29.053Z,92.33
2018-08-25T20:53:59.280Z,92.78
2018-08-25T20:56:29.577Z,92.74
2018-08-25T20:58:59.670Z,93.57
2018-08-25T21:01:29.795Z,93.83
2018-08-25T21:03:59.988Z,94.00
2018-08-25T21:06:30.155Z,94.39
2018-08-25T21:09:00.224Z,94.78
2018-08-25T21:11:30.325Z,95.99
2018-08-25T21:14:00.461Z,96.01
2018-08-25T21:16:30.654Z,96.17
2018-08-25T21:19:00.878Z,96.54
2018-08-25T21:21:31.372Z,96.69
2018-08-25T21:24:01.571Z,97.07
2018-08-25T21:26:31.653Z,96.63
2018-08-25T21:29:01.779Z,95.98
2018-08-25T21:31:31.804Z,94.79
2018-08-25T21:34:01.870Z,93.59
2018-08-25T21:36:32.049Z,93.27
2018-08-25T21:39:02.230Z,92.99
2018-08-25T21:41:32.313Z,92.72
2018-08-25T21:44:02.452Z,92.60
2018-08-25T21:46:32.485Z,92.17
2018-08-25T21:49:02.554Z,93.00
2018-08-25T21:51:33.014Z,92.98
2018-08-25T21:54:03.065Z,92.78
2018-08-25T21:56:33.229Z,93.72
2018-08-25T21:59:03.275Z,94.15
2018-08-25T22:01:38.343Z,94.42
2018-08-25T22:04:09.306Z,93.65
2018-08-25T22:06:48.694Z,94.06
2018-08-25T22:09:18.783Z,93.19
2018-08-25T22:11:48.838Z,93.68
2018-08-25T22:14:18.932Z,93.17
2018-08-25T22:16:49.976Z,93.31
2018-08-25T22:19:20.162Z,92.94
2018-08-25T22:21:50.255Z,93.07
2018-08-25T22:24:20.317Z,93.78
2018-08-25T22:26:50.388Z,93.82
2018-08-25T22:29:20.704Z,93.98
2018-08-25T22:31:50.885Z,94.77
2018-08-25T22:34:21.090Z,94.00
2018-08-25T22:36:51.158Z,94.23
2018-08-25T22:39:21.345Z,94.15
2018-08-25T22:41:51.465Z,93.81
2018-08-25T22:44:21.661Z,94.07
2018-08-25T22:46:51.747Z,94.35
2018-08-25T22:49:21.800Z,94.25
2018-08-25T22:51:51.858Z,94.54
2018-08-25T22:54:22.009Z,94.98
2018-08-25T22:56:52.270Z,95.09
2018-08-25T22:59:22.355Z,94.83
2018-08-25T23:01:52.572Z,95.33
2018-08-25T23:04:22.636Z,95.24
2018-08-25T23:06:52.683Z,95.49
2018-08-25T23:09:36.264Z,95.39
2018-08-25T23:12:07.590Z,95.46
2018-08-25T23:14:37.697Z,95.51
2018-08-25T23:17:07.809Z,95.52
2018-08-25T23:19:37.870Z,95.53
2018-08-25T23:22:07.901Z,95.72
2018-08-25T23:24:37.966Z,96.33
2018-08-25T23:27:08.034Z,97.26
2018-08-25T23:29:38.114Z,97.58
2018-08-25T23:32:08.164Z,97.68
2018-08-25T23:34:38.201Z,97.62
2018-08-25T23:37:08.364Z,97.42
2018-08-25T23:39:38.448Z,97.27
2018-08-25T23:42:08.516Z,97.50
2018-08-25T23:44:38.595Z,97.57
2018-08-25T23:47:08.661Z,98.39
2018-08-25T23:49:38.716Z,98.89
2018-08-25T23:52:08.770Z,99.10
2018-08-25T23:54:38.928Z,99.41
2018-08-25T23:57:09.017Z,98.93
2018-08-25T23:59:39.104Z,99.15
